Time;durP1;ratioP1;P1;durP2;ratioP2;P2;SDS_P1;SDS_P2;PMS_P1;PMS_P2;Temp;Humidity;BMP_temperature;BMP_pressure;BME280_temperature;BME280_humidity;BME280_pressure;Samples;Min_cycle;Max_cycle;Signal;HPM_P1;HPM_P2
2022/05/27 00:01:08;;;;;;;1.42;1.27;;;19.00;99.90;;;;;;5115759;28;20169;-64
2022/05/27 00:03:34;;;;;;;5.47;1.30;;;19.00;99.90;;;;;;5116140;28;20227;-63
2022/05/27 00:06:00;;;;;;;1.90;1.20;;;19.00;99.90;;;;;;5116087;28;20170;-65
2022/05/27 00:08:26;;;;;;;1.40;1.20;;;18.90;99.90;;;;;;5116584;28;20162;-63
2022/05/27 00:10:54;;;;;;;1.83;1.27;;;18.90;99.90;;;;;;5116743;28;20170;-64
2022/05/27 00:13:19;;;;;;;1.27;1.17;;;19.00;99.90;;;;;;5116126;28;20254;-63
2022/05/27 00:15:45;;;;;;;3.13;1.25;;;19.00;99.90;;;;;;5116309;28;20314;-64
2022/05/27 00:18:11;;;;;;;1.60;0.90;;;19.00;99.90;;;;;;5116034;28;20165;-64
2022/05/27 00:20:37;;;;;;;1.48;1.10;;;19.00;99.90;;;;;;5115665;28;20162;-63
2022/05/27 00:23:03;;;;;;;2.60;1.10;;;19.00;99.90;;;;;;5116032;28;20169;-65
2022/05/27 00:25:28;;;;;;;1.60;0.98;;;19.00;99.90;;;;;;5115600;28;20206;-64
2022/05/27 00:27:54;;;;;;;1.73;1.13;;;18.90;99.90;;;;;;5115788;28;20251;-64
2022/05/27 00:30:20;;;;;;;1.73;1.40;;;18.90;99.90;;;;;;5116339;28;20181;-62
2022/05/27 00:32:45;;;;;;;3.10;1.10;;;18.90;99.90;;;;;;5115998;28;20174;-64
2022/05/27 00:35:12;;;;;;;3.63;1.30;;;19.00;99.90;;;;;;5115898;28;20166;-64
2022/05/27 00:37:37;;;;;;;1.60;1.15;;;19.00;99.90;;;;;;5097877;28;20615;-65
2022/05/27 00:40:05;;;;;;;2.08;1.40;;;18.90;99.90;;;;;;5099276;28;20178;-62
2022/05/27 00:42:31;;;;;;;1.40;1.10;;;18.90;99.90;;;;;;5119203;28;20231;-64
2022/05/27 00:44:56;;;;;;;1.88;1.30;;;18.90;99.90;;;;;;5120192;28;20622;-64
2022/05/27 00:47:25;;;;;;;2.75;1.15;;;18.90;99.90;;;;;;5120928;28;20158;-65
2022/05/27 00:49:57;;;;;;;1.88;1.20;;;18.90;99.90;;;;;;5118026;28;20516;-64
2022/05/27 00:52:30;;;;;;;2.22;1.20;;;18.90;99.90;;;;;;5121355;28;20162;-63
2022/05/27 00:54:56;;;;;;;2.10;1.50;;;18.90;99.90;;;;;;5121663;28;20158;-63
2022/05/27 00:57:28;;;;;;;3.58;1.45;;;18.90;99.90;;;;;;5120164;28;20563;-64
2022/05/27 00:59:56;;;;;;;1.83;1.23;;;18.90;99.90;;;;;;5116206;28;20173;-64
2022/05/27 01:02:22;;;;;;;2.38;1.30;;;19.00;99.90;;;;;;5117187;28;20169;-63
2022/05/27 01:04:49;;;;;;;6.35;1.40;;;18.90;99.90;;;;;;5117419;28;20281;-63
2022/05/27 01:07:14;;;;;;;4.25;1.20;;;18.90;99.90;;;;;;5115195;28;20166;-65
2022/05/27 01:09:44;;;;;;;2.00;1.38;;;18.90;99.90;;;;;;5111294;28;20562;-64
2022/05/27 01:12:34;;;;;;;1.27;1.17;;;18.90;99.90;;;;;;5114640;28;20167;-63
2022/05/27 01:15:09;;;;;;;2.28;1.20;;;18.90;99.90;;;;;;5114905;28;20222;-63
2022/05/27 01:18:05;;;;;;;2.63;1.40;;;18.90;99.90;;;;;;5096287;28;20280;-63
2022/05/27 01:20:49;;;;;;;2.70;1.25;;;18.90;99.90;;;;;;5114639;28;20162;-63
2022/05/27 01:23:45;;;;;;;1.92;1.42;;;18.90;99.90;;;;;;5096926;28;20182;-64
2022/05/27 01:26:20;;;;;;;1.50;1.08;;;18.90;99.90;;;;;;5114452;28;20186;-63
2022/05/27 01:29:04;;;;;;;2.70;1.30;;;18.90;99.90;;;;;;5114821;28;20170;-64
2022/05/27 01:31:53;;;;;;;2.25;1.20;;;18.90;99.90;;;;;;5114361;28;20162;-65
2022/05/27 01:34:25;;;;;;;2.50;1.38;;;19.00;99.90;;;;;;5114277;28;20170;-63
2022/05/27 01:37:08;;;;;;;1.50;1.23;;;19.00;99.90;;;;;;5114372;28;20290;-64
2022/05/27 01:39:43;;;;;;;5.05;1.50;;;19.00;99.90;;;;;;5114654;28;20158;-64
2022/05/27 01:42:20;;;;;;;1.88;1.42;;;18.90;99.90;;;;;;5096423;28;20173;-63
2022/05/27 01:45:28;;;;;;;2.72;1.52;;;19.00;99.90;;;;;;5115105;28;20192;-62
2022/05/27 01:47:59;;;;;;;1.98;1.52;;;19.00;99.90;;;;;;5101911;28;20675;-63
2022/05/27 01:51:07;;;;;;;2.70;1.25;;;19.00;99.90;;;;;;5115951;28;20245;-63
2022/05/27 01:53:59;;;;;;;2.45;1.17;;;18.90;99.90;;;;;;5058987;28;20247;-62
2022/05/27 01:56:31;;;;;;;2.47;1.60;;;19.00;99.90;;;;;;5114782;28;20159;-64
2022/05/27 01:59:01;;;;;;;2.35;1.27;;;18.90;99.90;;;;;;5114390;28;20170;-63
2022/05/27 02:01:34;;;;;;;3.63;1.55;;;18.90;99.90;;;;;;5115004;28;20602;-65
2022/05/27 02:04:10;;;;;;;2.75;1.30;;;18.90;99.90;;;;;;5115155;28;20243;-64
2022/05/27 02:06:56;;;;;;;4.10;1.38;;;18.90;99.90;;;;;;5115394;28;20234;-64
2022/05/27 02:09:34;;;;;;;3.38;1.40;;;18.90;99.90;;;;;;5082356;28;20181;-64
2022/05/27 02:12:08;;;;;;;1.70;1.45;;;19.00;99.90;;;;;;5116403;28;20162;-63
2022/05/27 02:14:42;;;;;;;2.03;1.50;;;18.90;99.90;;;;;;5116139;28;20161;-63
2022/05/27 02:17:14;;;;;;;1.98;1.33;;;18.90;99.90;;;;;;5115758;28;20159;-64
2022/05/27 02:19:50;;;;;;;4.07;1.88;;;18.90;99.90;;;;;;5115759;28;20215;-64
2022/05/27 02:22:21;;;;;;;2.75;1.50;;;19.00;99.90;;;;;;5116585;28;20161;-64
2022/05/27 02:25:30;;;;;;;1.58;1.20;;;18.90;99.90;;;;;;5119256;28;20181;-63
2022/05/27 02:28:26;;;;;;;1.50;1.15;;;18.90;99.90;;;;;;5020754;28;20241;-64
2022/05/27 02:30:57;;;;;;;1.50;1.40;;;18.90;99.90;;;;;;5018716;28;20193;-63
2022/05/27 02:36:22;;;;;;;5.15;1.50;;;18.90;99.90;;;;;;5014937;28;20215;-65
2022/05/27 02:38:49;;;;;;;2.03;1.30;;;18.80;99.90;;;;;;4997307;28;20211;-63
2022/05/27 02:41:29;;;;;;;2.83;1.17;;;18.90;99.90;;;;;;5012629;28;20712;-63
2022/05/27 02:44:06;;;;;;;2.50;1.35;;;18.90;99.90;;;;;;5012633;28;20270;-63
2022/05/27 02:46:52;;;;;;;2.55;1.35;;;19.00;99.90;;;;;;5012270;28;20272;-63
2022/05/27 02:49:35;;;;;;;4.55;1.33;;;18.90;99.90;;;;;;5013935;28;20309;-67
2022/05/27 02:52:11;;;;;;;6.10;1.50;;;18.90;99.90;;;;;;5013109;28;20239;-67
2022/05/27 02:54:54;;;;;;;2.05;1.35;;;18.90;99.90;;;;;;5012827;28;20217;-63
2022/05/27 02:57:30;;;;;;;8.32;1.30;;;18.90;99.90;;;;;;5012793;28;20166;-63
2022/05/27 02:59:58;;;;;;;1.30;1.20;;;18.90;99.90;;;;;;5012837;28;20173;-64
2022/05/27 03:02:23;;;;;;;7.70;1.30;;;18.90;99.90;;;;;;5060456;28;20449;-64
2022/05/27 03:04:58;;;;;;;1.20;1.10;;;18.90;99.90;;;;;;5076058;28;20206;-64
2022/05/27 03:07:43;;;;;;;4.40;1.48;;;18.90;99.90;;;;;;5075789;28;20186;-63
2022/05/27 03:10:23;;;;;;;2.05;1.40;;;18.80;99.90;;;;;;5082999;28;20187;-65
2022/05/27 03:13:14;;;;;;;4.38;1.50;;;18.90;99.90;;;;;;5079323;28;20174;-64
2022/05/27 03:15:52;;;;;;;2.65;1.50;;;18.90;99.90;;;;;;5073087;28;20159;-66
2022/05/27 03:18:20;;;;;;;1.65;1.13;;;18.80;99.90;;;;;;5073357;28;20193;-62
2022/05/27 03:21:33;;;;;;;1.65;1.35;;;18.80;99.90;;;;;;5073567;28;20266;-63
2022/05/27 03:24:11;;;;;;;2.25;1.55;;;18.80;99.90;;;;;;5073831;28;20216;-64
2022/05/27 03:26:42;;;;;;;1.83;1.40;;;18.80;99.90;;;;;;5089233;28;20222;-63
2022/05/27 03:29:20;;;;;;;2.03;1.27;;;18.80;99.90;;;;;;5118031;28;20166;-65
2022/05/27 03:31:51;;;;;;;3.28;1.40;;;18.70;99.90;;;;;;5117878;28;20551;-64
2022/05/27 03:34:25;;;;;;;2.92;1.30;;;18.70;99.90;;;;;;5117772;28;20174;-62
2022/05/27 03:37:08;;;;;;;4.72;1.40;;;18.70;99.90;;;;;;5118298;28;20155;-64
2022/05/27 03:39:51;;;;;;;1.75;1.38;;;18.70;99.90;;;;;;5118039;28;20166;-64
2022/05/27 03:42:19;;;;;;;1.60;1.33;;;18.60;99.90;;;;;;5117327;28;20619;-64
2022/05/27 03:44:56;;;;;;;1.42;1.23;;;18.70;99.90;;;;;;5117204;28;20245;-63
2022/05/27 03:47:22;;;;;;;1.55;1.23;;;18.60;99.90;;;;;;5117201;28;20542;-63
2022/05/27 03:49:47;;;;;;;2.92;1.52;;;18.60;99.90;;;;;;5117585;28;20154;-62
2022/05/27 03:52:23;;;;;;;1.67;1.42;;;18.60;99.90;;;;;;5118021;28;20163;-65
2022/05/27 03:54:48;;;;;;;4.13;1.40;;;18.60;99.90;;;;;;5117879;28;20172;-63
2022/05/27 03:57:14;;;;;;;3.03;1.40;;;18.60;99.90;;;;;;5122301;28;20257;-66
2022/05/27 03:59:40;;;;;;;4.22;1.50;;;18.60;99.90;;;;;;5122872;28;20252;-64
2022/05/27 04:02:06;;;;;;;1.33;1.00;;;18.60;99.90;;;;;;5126444;28;20292;-65
2022/05/27 04:04:32;;;;;;;2.17;1.20;;;18.60;99.90;;;;;;5124976;28;20193;-68
2022/05/27 04:06:58;;;;;;;2.22;1.30;;;18.60;99.90;;;;;;5120616;28;20158;-64
2022/05/27 04:09:25;;;;;;;4.78;1.55;;;18.60;99.90;;;;;;5122457;28;20212;-65
2022/05/27 04:11:51;;;;;;;1.80;1.17;;;18.50;99.90;;;;;;5124381;28;20205;-64
2022/05/27 04:14:17;;;;;;;4.35;1.38;;;18.50;99.90;;;;;;5123854;28;20602;-63
2022/05/27 04:16:43;;;;;;;2.85;1.20;;;18.50;99.90;;;;;;5121498;28;20288;-63
2022/05/27 04:19:09;;;;;;;3.47;1.30;;;18.50;99.90;;;;;;5121146;28;20196;-66
2022/05/27 04:21:36;;;;;;;2.75;1.25;;;18.50;99.90;;;;;;5118967;28;20181;-63
2022/05/27 04:24:02;;;;;;;3.00;1.33;;;18.50;99.90;;;;;;5120203;28;20318;-63
2022/05/27 04:26:28;;;;;;;4.22;1.33;;;18.50;99.90;;;;;;5120098;28;20222;-64
2022/05/27 04:28:54;;;;;;;1.83;1.25;;;18.60;99.90;;;;;;5119587;28;20182;-65
2022/05/27 04:31:20;;;;;;;4.80;1.30;;;18.50;99.90;;;;;;5117837;28;20173;-63
2022/05/27 04:33:45;;;;;;;2.08;1.55;;;18.50;99.90;;;;;;5117565;28;20253;-64
2022/05/27 04:36:14;;;;;;;4.03;1.80;;;18.50;99.90;;;;;;5115959;28;20160;-63
2022/05/27 04:38:41;;;;;;;2.30;1.25;;;18.40;99.90;;;;;;5116783;28;20173;-64
2022/05/27 04:41:06;;;;;;;3.22;1.50;;;18.40;99.90;;;;;;5116904;28;20170;-65
2022/05/27 04:43:33;;;;;;;1.77;1.35;;;18.40;99.90;;;;;;5116392;28;20198;-64
2022/05/27 04:46:00;;;;;;;5.22;1.58;;;18.30;99.90;;;;;;5115959;28;20201;-64
2022/05/27 04:48:26;;;;;;;2.30;1.60;;;18.30;99.90;;;;;;5115846;28;20166;-63
2022/05/27 04:50:52;;;;;;;2.08;1.50;;;18.40;99.90;;;;;;5116096;28;20466;-64
2022/05/27 04:53:18;;;;;;;5.10;2.40;;;18.40;99.90;;;;;;5116625;28;20171;-63
2022/05/27 04:55:44;;;;;;;1.92;1.40;;;18.40;99.90;;;;;;5117071;28;20163;-63
2022/05/27 04:58:11;;;;;;;2.67;1.38;;;18.40;99.90;;;;;;5116864;28;20193;-63
2022/05/27 05:00:43;;;;;;;3.15;1.70;;;18.30;99.90;;;;;;5115979;28;20166;-63
2022/05/27 05:03:10;;;;;;;4.70;1.90;;;18.20;99.90;;;;;;5116806;28;20170;-63
2022/05/27 05:05:37;;;;;;;4.72;2.28;;;18.10;99.90;;;;;;5097145;28;20270;-61
2022/05/27 05:08:22;;;;;;;3.45;1.55;;;18.10;99.90;;;;;;5114813;28;20154;-63
2022/05/27 05:10:47;;;;;;;3.95;1.50;;;18.20;99.90;;;;;;5114840;28;20493;-62
2022/05/27 05:13:13;;;;;;;3.60;1.67;;;18.20;99.90;;;;;;5115225;28;20162;-63
2022/05/27 05:15:39;;;;;;;6.05;1.75;;;18.10;99.90;;;;;;5115298;28;20159;-64
2022/05/27 05:18:05;;;;;;;1.65;1.55;;;18.00;99.90;;;;;;5115408;28;20209;-62
2022/05/27 05:20:32;;;;;;;5.70;2.00;;;18.00;99.90;;;;;;5114603;28;20173;-64
2022/05/27 05:22:58;;;;;;;2.47;1.70;;;18.00;99.90;;;;;;5114640;28;20655;-64
2022/05/27 05:25:25;;;;;;;3.60;1.38;;;17.90;99.90;;;;;;5114991;28;20221;-63
2022/05/27 05:27:51;;;;;;;2.88;1.50;;;17.90;99.90;;;;;;5114674;28;20302;-64
2022/05/27 05:30:23;;;;;;;5.93;1.70;;;17.80;99.90;;;;;;5114774;28;20355;-63
2022/05/27 05:32:49;;;;;;;1.63;1.27;;;17.90;99.90;;;;;;5115448;28;20235;-62
2022/05/27 05:35:16;;;;;;;1.75;1.40;;;17.80;99.90;;;;;;5115362;28;20226;-63
2022/05/27 05:37:41;;;;;;;2.83;1.38;;;17.70;99.90;;;;;;5114335;28;20162;-65
2022/05/27 05:40:11;;;;;;;2.72;1.92;;;17.70;99.90;;;;;;5114392;28;20170;-63
2022/05/27 05:42:38;;;;;;;2.58;1.50;;;17.60;99.90;;;;;;5114243;28;20182;-64
2022/05/27 05:45:04;;;;;;;2.40;1.50;;;17.60;99.90;;;;;;5096371;28;20251;-63
2022/05/27 05:47:30;;;;;;;2.35;1.65;;;17.40;99.90;;;;;;5113583;28;20174;-63
2022/05/27 05:49:55;;;;;;;4.05;1.80;;;17.40;99.90;;;;;;5114048;28;20176;-63
2022/05/27 05:52:21;;;;;;;2.63;1.87;;;17.40;99.90;;;;;;5114661;28;20166;-63
2022/05/27 05:54:47;;;;;;;2.78;1.80;;;17.40;99.90;;;;;;5114355;28;20171;-63
2022/05/27 05:57:12;;;;;;;2.88;1.60;;;17.30;99.90;;;;;;5114056;28;20190;-63
2022/05/27 05:59:38;;;;;;;2.90;1.50;;;17.20;99.90;;;;;;5113654;28;20162;-62
2022/05/27 06:02:05;;;;;;;4.53;1.70;;;17.20;99.90;;;;;;5114628;28;20198;-64
2022/05/27 06:04:31;;;;;;;4.93;1.98;;;17.10;99.90;;;;;;5114141;28;20597;-64
2022/05/27 06:06:58;;;;;;;4.70;2.87;;;17.10;99.90;;;;;;5114758;28;20173;-64
2022/05/27 06:09:25;;;;;;;2.57;1.50;;;17.10;99.90;;;;;;5114353;28;20190;-64
2022/05/27 06:11:55;;;;;;;3.25;1.52;;;17.00;99.90;;;;;;5114137;28;20210;-64
2022/05/27 06:14:21;;;;;;;3.03;1.80;;;17.00;99.90;;;;;;5114040;28;20496;-64
2022/05/27 06:16:47;;;;;;;4.13;1.80;;;17.00;99.90;;;;;;5114023;28;20174;-63
2022/05/27 06:19:13;;;;;;;3.50;1.80;;;17.00;99.90;;;;;;5114203;28;20241;-64
2022/05/27 06:21:39;;;;;;;3.05;1.75;;;16.90;99.90;;;;;;5114008;28;20185;-64
2022/05/27 06:24:05;;;;;;;1.70;1.50;;;16.90;99.90;;;;;;5113857;28;20232;-70
2022/05/27 06:26:30;;;;;;;3.13;1.87;;;16.90;99.90;;;;;;5113910;28;20225;-63
2022/05/27 06:34:25;;;;;;;2.08;1.58;;;16.70;99.90;;;;;;5113772;28;20180;-63
2022/05/27 06:36:56;;;;;;;5.03;1.70;;;16.70;99.90;;;;;;5095661;28;20676;-65
2022/05/27 06:39:23;;;;;;;5.03;2.25;;;16.70;99.90;;;;;;5116381;28;20578;-64
2022/05/27 06:41:49;;;;;;;4.50;1.70;;;16.80;99.90;;;;;;5116999;28;20204;-63
2022/05/27 06:44:14;;;;;;;4.45;2.25;;;16.80;99.90;;;;;;5119661;28;20204;-64
2022/05/27 06:46:40;;;;;;;2.15;1.67;;;16.70;99.90;;;;;;5121332;28;20208;-64
2022/05/27 06:49:06;;;;;;;6.13;2.10;;;16.70;99.90;;;;;;5114288;28;20154;-64
2022/05/27 06:51:35;;;;;;;4.37;1.83;;;16.80;99.90;;;;;;5114323;28;20162;-63
2022/05/27 06:54:01;;;;;;;3.63;2.00;;;16.80;99.90;;;;;;5113593;28;20552;-64
2022/05/27 06:56:26;;;;;;;3.07;2.00;;;16.80;99.90;;;;;;5113737;28;20162;-63
2022/05/27 06:58:52;;;;;;;4.50;2.30;;;16.80;99.90;;;;;;5115199;28;20190;-63
2022/05/27 07:01:17;;;;;;;6.03;2.20;;;16.70;99.90;;;;;;5117833;28;20170;-64
2022/05/27 07:03:43;;;;;;;3.53;1.77;;;16.60;99.90;;;;;;5117822;28;20162;-64
2022/05/27 07:06:11;;;;;;;4.77;2.83;;;16.60;99.90;;;;;;5117745;28;20251;-64
2022/05/27 07:08:37;;;;;;;7.20;2.20;;;16.70;99.90;;;;;;5117427;28;20155;-66
2022/05/27 07:11:04;;;;;;;3.27;1.83;;;16.70;99.90;;;;;;5117481;28;20173;-65
2022/05/27 07:13:30;;;;;;;3.63;1.77;;;16.70;99.90;;;;;;5117825;28;20158;-64
2022/05/27 07:15:55;;;;;;;2.90;2.03;;;16.80;99.90;;;;;;5118318;28;20166;-64
2022/05/27 07:18:21;;;;;;;3.50;2.00;;;16.70;99.90;;;;;;5118769;28;20154;-64
2022/05/27 07:20:47;;;;;;;3.63;1.90;;;16.60;99.90;;;;;;5122550;28;20199;-64
2022/05/27 07:23:13;;;;;;;6.90;2.90;;;16.60;99.90;;;;;;5122687;28;20613;-66
2022/05/27 07:25:40;;;;;;;3.83;2.00;;;16.60;99.90;;;;;;5118393;28;20221;-65
2022/05/27 07:28:07;;;;;;;3.90;2.10;;;16.40;99.90;;;;;;5118020;28;20225;-65
2022/05/27 07:30:36;;;;;;;4.13;1.90;;;16.40;99.90;;;;;;5117414;28;20154;-64
2022/05/27 07:33:01;;;;;;;2.07;1.40;;;16.20;99.90;;;;;;5117087;28;20612;-64
2022/05/27 07:35:27;;;;;;;1.73;1.00;;;15.80;99.90;;;;;;5117497;28;20187;-65
2022/05/27 07:37:53;;;;;;;3.63;1.20;;;14.90;99.90;;;;;;5117089;28;20166;-63
2022/05/27 07:40:19;;;;;;;2.23;1.17;;;14.20;99.90;;;;;;5116724;28;20162;-63
2022/05/27 07:42:45;;;;;;;2.27;1.10;;;14.20;99.90;;;;;;5116486;28;20158;-62
2022/05/27 07:45:13;;;;;;;1.30;1.00;;;14.00;99.90;;;;;;5117395;28;20228;-65
2022/05/27 07:47:39;;;;;;;2.20;1.10;;;14.10;99.90;;;;;;5122671;28;20174;-64
2022/05/27 07:50:07;;;;;;;1.10;1.00;;;13.80;99.90;;;;;;5125851;28;20169;-64
2022/05/27 07:52:34;;;;;;;1.87;1.03;;;14.00;99.90;;;;;;5125837;28;20158;-62
2022/05/27 07:55:03;;;;;;;1.97;1.20;;;13.80;99.90;;;;;;5123108;28;20154;-63
2022/05/27 07:57:29;;;;;;;0.97;0.93;;;13.80;99.90;;;;;;5126529;28;20234;-64
2022/05/27 07:59:54;;;;;;;2.70;1.17;;;13.90;99.90;;;;;;5100023;28;20182;-63
2022/05/27 08:02:23;;;;;;;1.73;1.33;;;13.90;99.90;;;;;;5116896;28;20238;-63
2022/05/27 08:04:49;;;;;;;2.97;1.23;;;13.90;99.90;;;;;;5098648;28;20578;-63
2022/05/27 08:07:15;;;;;;;2.47;1.30;;;13.80;99.90;;;;;;5116082;28;20309;-63
2022/05/27 08:09:41;;;;;;;2.83;1.30;;;13.70;99.90;;;;;;5115640;28;20170;-64
2022/05/27 08:12:07;;;;;;;1.93;1.43;;;13.70;99.90;;;;;;5098419;28;20170;-63
2022/05/27 08:14:33;;;;;;;1.13;1.00;;;13.90;99.90;;;;;;5115869;28;20183;-63
2022/05/27 08:17:00;;;;;;;1.57;1.30;;;13.90;99.90;;;;;;5116266;28;20166;-63
2022/05/27 08:19:26;;;;;;;2.90;1.53;;;13.90;99.90;;;;;;5116040;28;20203;-63
2022/05/27 08:21:51;;;;;;;1.90;1.30;;;14.00;99.90;;;;;;5115993;28;20155;-64
2022/05/27 08:24:17;;;;;;;2.07;1.20;;;13.90;99.90;;;;;;5115580;28;20194;-63
2022/05/27 08:26:43;;;;;;;1.47;1.23;;;13.90;99.90;;;;;;5116095;28;20278;-63
2022/05/27 08:29:09;;;;;;;3.13;1.67;;;14.00;99.90;;;;;;5115283;28;20250;-64
2022/05/27 08:31:36;;;;;;;8.03;1.33;;;14.00;99.90;;;;;;5115651;28;20249;-64
2022/05/27 08:39:32;;;;;;;3.17;1.47;;;13.90;99.90;;;;;;5116303;28;20165;-65
2022/05/27 08:42:16;;;;;;;4.27;1.70;;;13.90;99.90;;;;;;5123965;28;20162;-63
2022/05/27 08:44:56;;;;;;;2.63;1.73;;;14.00;99.90;;;;;;5126188;28;20205;-64
2022/05/27 08:47:24;;;;;;;2.30;1.60;;;14.10;99.90;;;;;;5129744;28;20173;-64
2022/05/27 08:50:08;;;;;;;1.70;1.30;;;14.00;99.90;;;;;;5118583;28;20245;-64
2022/05/27 08:52:38;;;;;;;2.40;1.30;;;14.00;99.90;;;;;;5115167;28;20608;-63
2022/05/27 08:59:26;;;;;;;1.63;1.10;;;13.90;99.90;;;;;;5115197;28;20624;-64
2022/05/27 09:00:40;;;;;;;2.00;1.40;;;16.00;99.90;;;;;;5115320;28;20173;-63
2022/05/27 09:03:08;;;;;;;2.40;1.07;;;16.60;99.90;;;;;;5115801;28;20155;-64
2022/05/27 09:05:42;;;;;;;2.40;0.97;;;16.00;99.90;;;;;;5115384;28;20198;-62
2022/05/27 09:08:19;;;;;;;2.30;1.77;;;15.20;99.90;;;;;;5115272;28;20177;-63
2022/05/27 09:10:47;;;;;;;3.90;1.27;;;14.70;99.90;;;;;;5115406;28;20287;-63
2022/05/27 09:13:37;;;;;;;1.33;1.10;;;14.60;99.90;;;;;;5115083;28;20511;-63
2022/05/27 09:16:26;;;;;;;3.40;1.20;;;14.70;99.90;;;;;;5114799;28;20158;-63
2022/05/27 09:19:07;;;;;;;2.07;1.37;;;14.40;99.90;;;;;;5115062;28;20249;-63
2022/05/27 09:21:54;;;;;;;1.20;1.10;;;14.30;99.90;;;;;;5114482;28;20276;-64
2022/05/27 09:25:10;;;;;;;2.30;1.20;;;14.60;99.90;;;;;;5114802;28;20198;-64
2022/05/27 09:27:47;;;;;;;2.20;1.13;;;14.90;99.90;;;;;;5035910;28;20230;-64
2022/05/27 09:30:15;;;;;;;1.77;1.10;;;15.00;99.90;;;;;;5054138;28;20186;-64
2022/05/27 09:32:55;;;;;;;8.70;1.90;;;14.80;99.90;;;;;;5054641;28;20156;-62
2022/05/27 09:35:22;;;;;;;3.70;1.53;;;15.00;99.90;;;;;;5053995;28;20168;-62
2022/05/27 09:37:52;;;;;;;1.47;1.37;;;15.10;99.90;;;;;;5053812;28;20175;-63
2022/05/27 09:40:28;;;;;;;2.80;1.70;;;14.90;99.90;;;;;;5054893;28;20170;-64
2022/05/27 09:43:02;;;;;;;1.97;1.40;;;14.90;99.90;;;;;;5053570;28;20178;-64
2022/05/27 09:45:29;;;;;;;1.67;1.30;;;15.00;99.90;;;;;;5053226;28;20204;-62
2022/05/27 09:48:00;;;;;;;2.70;1.70;;;15.10;99.90;;;;;;5054614;28;20195;-62
2022/05/27 09:50:46;;;;;;;3.73;1.57;;;15.00;99.90;;;;;;5052971;28;20238;-64
2022/05/27 09:53:17;;;;;;;3.93;2.23;;;15.20;99.90;;;;;;5054014;28;20186;-63
2022/05/27 09:56:11;;;;;;;2.37;1.33;;;15.30;99.90;;;;;;5053456;28;20160;-63
2022/05/27 09:58:45;;;;;;;3.03;1.50;;;15.20;99.90;;;;;;5052874;28;20199;-64
2022/05/27 10:01:22;;;;;;;2.50;1.50;;;15.30;99.90;;;;;;5053792;28;20168;-63
2022/05/27 10:04:02;;;;;;;1.73;1.60;;;15.20;99.90;;;;;;5052463;28;20179;-63
2022/05/27 10:06:30;;;;;;;2.43;1.60;;;15.40;99.90;;;;;;5053566;28;20255;-63
2022/05/27 10:08:59;;;;;;;3.93;1.70;;;15.20;99.90;;;;;;5054447;28;20634;-63
2022/05/27 10:11:46;;;;;;;2.60;1.73;;;15.40;99.90;;;;;;5053836;28;20168;-63
2022/05/27 10:14:16;;;;;;;2.50;1.70;;;15.50;99.90;;;;;;5052732;28;20278;-64
2022/05/27 10:16:58;;;;;;;4.37;2.10;;;15.50;99.90;;;;;;5053963;28;20166;-62
2022/05/27 10:19:25;;;;;;;2.00;1.60;;;15.40;99.90;;;;;;5054029;28;20160;-62
2022/05/27 10:21:59;;;;;;;5.63;1.77;;;15.40;99.90;;;;;;5053982;28;20160;-64
2022/05/27 10:24:32;;;;;;;1.70;1.60;;;15.50;99.90;;;;;;5058335;28;20211;-63
2022/05/27 10:27:08;;;;;;;5.13;1.80;;;15.40;99.90;;;;;;5064560;28;20258;-63
2022/05/27 10:29:50;;;;;;;2.93;1.87;;;15.40;99.90;;;;;;5074531;28;20270;-63
2022/05/27 10:32:27;;;;;;;3.97;1.77;;;15.40;99.90;;;;;;5075148;28;20681;-64
2022/05/27 10:34:53;;;;;;;3.77;1.97;;;15.30;99.90;;;;;;5079384;28;20159;-62
2022/05/27 10:37:38;;;;;;;5.53;1.83;;;15.10;99.90;;;;;;5079739;28;20172;-62
2022/05/27 10:40:28;;;;;;;5.60;2.00;;;15.30;99.90;;;;;;5080973;28;20163;-63
2022/05/27 10:43:11;;;;;;;3.17;2.00;;;15.30;99.90;;;;;;5084153;28;20163;-63
2022/05/27 10:45:47;;;;;;;2.90;1.70;;;15.10;99.90;;;;;;5083633;28;20221;-64
2022/05/27 10:48:31;;;;;;;2.17;1.97;;;15.20;99.90;;;;;;5086163;28;20158;-64
2022/05/27 10:51:08;;;;;;;2.53;2.07;;;15.20;99.90;;;;;;5079497;28;20221;-63
2022/05/27 10:53:43;;;;;;;4.10;2.30;;;15.30;99.90;;;;;;5079928;28;20175;-64
2022/05/27 10:56:24;;;;;;;3.33;2.57;;;15.30;99.90;;;;;;5080086;28;20163;-63
2022/05/27 11:02:05;;;;;;;5.93;2.40;;;15.50;99.90;;;;;;5079443;28;20163;-63
2022/05/27 11:04:33;;;;;;;5.93;2.17;;;15.40;99.90;;;;;;5079958;28;20195;-63
2022/05/27 11:07:17;;;;;;;2.47;1.90;;;15.50;99.90;;;;;;5079874;28;20160;-63
2022/05/27 11:09:52;;;;;;;3.97;2.43;;;15.40;99.90;;;;;;5079545;28;20167;-63
2022/05/27 11:16:05;;;;;;;4.37;2.10;;;15.70;99.90;;;;;;5079092;28;20202;-63
2022/05/27 11:18:58;;;;;;;4.50;2.50;;;15.90;99.90;;;;;;5079453;28;20518;-63
2022/05/27 11:21:36;;;;;;;2.40;2.03;;;15.90;99.90;;;;;;5076554;28;20198;-63
2022/05/27 11:24:25;;;;;;;3.97;2.17;;;15.80;99.90;;;;;;5079746;28;20272;-63
2022/05/27 11:27:22;;;;;;;5.30;2.10;;;15.60;99.90;;;;;;5087515;28;20711;-63
2022/05/27 11:30:00;;;;;;;5.10;2.97;;;15.60;99.90;;;;;;5082094;28;20270;-64
2022/05/27 11:32:41;;;;;;;8.33;2.80;;;15.60;99.90;;;;;;5099646;28;20174;-63
2022/05/27 11:35:30;;;;;;;4.30;2.67;;;15.70;99.90;;;;;;5099593;28;20190;-63
2022/05/27 11:38:07;;;;;;;5.70;2.43;;;15.70;99.90;;;;;;5099559;28;20163;-64
2022/05/27 11:40:39;;;;;;;4.27;2.20;;;15.80;99.90;;;;;;5082697;28;20475;-64
2022/05/27 11:43:31;;;;;;;1.67;1.53;;;16.00;99.90;;;;;;5100138;28;20653;-66
2022/05/27 11:46:15;;;;;;;3.17;1.80;;;16.10;99.90;;;;;;5104461;28;20212;-64
2022/05/27 11:48:55;;;;;;;1.90;1.33;;;16.20;99.90;;;;;;5107995;28;20280;-63
2022/05/27 11:51:37;;;;;;;2.07;1.80;;;16.60;99.90;;;;;;5107664;28;20193;-64
2022/05/27 11:54:19;;;;;;;3.85;1.50;;;16.80;99.90;;;;;;5107878;28;20502;-68
2022/05/27 11:56:47;;;;;;;4.28;2.05;;;16.80;99.90;;;;;;5111143;28;20170;-66
2022/05/27 11:59:23;;;;;;;2.70;1.55;;;16.80;99.90;;;;;;5103880;28;20163;-63
2022/05/27 12:01:53;;;;;;;2.78;2.03;;;16.80;99.90;;;;;;5103178;28;20162;-67
2022/05/27 12:04:50;;;;;;;2.97;2.10;;;16.80;99.90;;;;;;5105138;28;20236;-66
2022/05/27 12:07:31;;;;;;;2.55;1.75;;;16.60;99.90;;;;;;5108107;28;20166;-64
2022/05/27 12:10:24;;;;;;;2.63;2.10;;;16.80;99.90;;;;;;5096427;28;20178;-64
2022/05/27 12:12:57;;;;;;;2.72;1.90;;;16.60;99.90;;;;;;5098420;28;20491;-65
2022/05/27 12:15:39;;;;;;;2.23;1.73;;;16.70;99.90;;;;;;5097331;28;20618;-64
2022/05/27 12:18:20;;;;;;;4.38;1.83;;;16.60;99.90;;;;;;5079068;28;20182;-64
2022/05/27 12:20:47;;;;;;;3.00;1.88;;;16.80;99.90;;;;;;5097602;28;20151;-64
2022/05/27 12:23:13;;;;;;;10.98;1.80;;;16.90;99.90;;;;;;5097902;28;20159;-64
2022/05/27 12:25:51;;;;;;;2.85;1.88;;;16.90;99.90;;;;;;5098725;28;20229;-64
2022/05/27 12:28:21;;;;;;;3.17;1.80;;;16.90;99.90;;;;;;5102135;28;20234;-66
2022/05/27 12:30:48;;;;;;;1.63;1.48;;;16.90;99.90;;;;;;5100475;28;20588;-64
2022/05/27 12:33:19;;;;;;;5.80;3.72;;;17.00;99.90;;;;;;5098114;28;20163;-78
2022/05/27 12:36:01;;;;;;;10.52;7.93;;;17.70;99.90;;;;;;5096911;28;20209;-63
2022/05/27 12:38:36;;;;;;;3.80;1.77;;;18.30;99.90;;;;;;5099496;28;20155;-63
2022/05/27 12:41:05;;;;;;;2.38;1.73;;;17.80;99.90;;;;;;5100112;28;20169;-62
2022/05/27 12:43:38;;;;;;;1.83;1.50;;;17.60;99.90;;;;;;5099129;28;20611;-66
2022/05/27 12:46:03;;;;;;;3.97;2.03;;;18.00;99.90;;;;;;5100114;28;20218;-62
2022/05/27 12:48:32;;;;;;;2.63;1.67;;;18.30;99.90;;;;;;5095412;28;20163;-63
2022/05/27 12:51:21;;;;;;;2.00;1.40;;;18.30;99.90;;;;;;5094873;28;20170;-62
2022/05/27 12:53:49;;;;;;;1.83;1.65;;;18.10;99.90;;;;;;5080662;28;20194;-63
2022/05/27 13:02:22;;;;;;;1.42;1.33;;;19.30;99.90;;;;;;5094767;28;20173;-63
2022/05/27 13:04:59;;;;;;;3.15;1.60;;;18.80;99.90;;;;;;5095076;28;20657;-63
2022/05/27 13:07:27;;;;;;;3.17;1.40;;;18.70;99.90;;;;;;5094660;28;20509;-63
2022/05/27 13:10:16;;;;;;;2.20;1.77;;;18.40;99.90;;;;;;5094979;28;20165;-63
2022/05/27 13:12:42;;;;;;;2.08;1.40;;;18.10;99.90;;;;;;5094698;28;20615;-64
2022/05/27 13:15:13;;;;;;;1.88;1.67;;;18.00;99.90;;;;;;5094195;28;20249;-61
2022/05/27 13:17:44;;;;;;;2.22;1.40;;;18.30;99.90;;;;;;5095036;28;20170;-63
2022/05/27 13:20:24;;;;;;;1.83;1.40;;;18.80;99.90;;;;;;5094322;28;20216;-64
2022/05/27 13:23:03;;;;;;;1.30;1.20;;;19.00;99.90;;;;;;5094106;28;20605;-63
2022/05/27 13:25:39;;;;;;;2.80;1.50;;;19.40;99.90;;;;;;5094755;28;20683;-63
2022/05/27 13:28:11;;;;;;;2.17;1.50;;;18.90;99.90;;;;;;5094815;28;20222;-62
2022/05/27 13:30:52;;;;;;;2.55;1.55;;;19.30;99.90;;;;;;5075626;28;20197;-64
2022/05/27 13:33:28;;;;;;;1.88;1.40;;;19.50;99.90;;;;;;5094544;28;20189;-62
2022/05/27 13:35:55;;;;;;;2.85;1.58;;;19.60;99.90;;;;;;5094182;28;20195;-64
2022/05/27 13:38:27;;;;;;;2.40;1.63;;;19.10;99.90;;;;;;5094295;28;20167;-64
2022/05/27 13:40:53;;;;;;;3.72;1.70;;;19.40;99.90;;;;;;5094223;28;20166;-64
2022/05/27 13:43:29;;;;;;;2.45;2.00;;;19.10;99.90;;;;;;5094473;28;20182;-63
2022/05/27 13:46:16;;;;;;;4.57;1.75;;;18.90;99.90;;;;;;5093965;28;20229;-63